Latest Weather Observations for Kununurra Airport

IDD60801

Issued at 1:01 am CST Thursday 24 August 2017 (issued every 30 minutes, with the page automatically refreshed every 10 minutes)

About weather observations | Map of weather stations | Latest weather observations for NT | Other Formats
Station Details ID: 002056 Name: KUNUNURRA AERO Lat: -15.78 Lon: 128.71 Height: 44.0 m
Data from the previous 72 hours. | See also: Recent months at Kununurra Airport
Date/Time
CST
Temp
°C
App
Temp
°C
Dew
Point
°C
Rel
Hum
%
Delta-T
°C
Wind Press
QNH
hPa
Press
MSL
hPa
Rain since
9am
mm
Dir  Spd
km/h
Gust
km/h
Spd
kts
Gust
kts
24/01:00am 20.8 22.5 16.2 75 2.8 NW 2 6 1 3 1014.8 1014.6 0.0
24/12:30am 21.3 23.4 16.3 73 3.0 CALM 0 0 0 0 1014.9 1014.7 0.0
24/12:20am 21.5 22.8 16.2 72 3.2 NE 4 7 2 4 1014.9 1014.7 0.0
24/12:03am 21.7 23.4 17.1 75 2.8 ENE 4 7 2 4 1015.0 1014.8 0.0
24/12:00am 21.9 24.0 17.3 75 2.8 ENE 2 7 1 4 1015.0 1014.8 0.0
 
Date/Time
CST
Temp
°C
App
Temp
°C
Dew
Point
°C
Rel
Hum
%
Delta-T
°C
Wind Press
QNH
hPa
Press
MSL
hPa
Rain since
9am
mm
Dir  Spd
km/h
Gust
km/h
Spd
kts
Gust
kts
23/11:30pm 22.5 25.0 17.2 72 3.3 CALM 0 0 0 0 1014.9 1014.7 0.0
23/11:00pm 23.2 25.4 16.5 66 4.1 CALM 0 0 0 0 1014.8 1014.6 0.0
23/10:43pm 24.1 26.5 16.9 64 4.4 CALM 0 0 0 0 1014.8 1014.6 0.0
23/10:30pm 24.3 26.5 16.6 62 4.7 CALM 0 0 0 0 1014.8 1014.6 0.0
23/10:27pm 24.2 26.4 16.5 62 4.7 CALM 0 0 0 0 1014.8 1014.6 0.0
23/10:00pm 23.7 24.3 16.7 65 4.3 N 9 9 5 5 1014.6 1014.4 0.0
23/09:30pm 24.3 25.3 16.8 63 4.6 NNW 7 9 4 5 1014.5 1014.3 0.0
23/09:00pm 25.1 25.5 16.3 58 5.4 N 9 11 5 6 1014.3 1014.1 0.0
23/08:44pm 26.8 26.8 17.3 56 6.0 NNW 13 17 7 9 1014.1 1013.9 0.0
23/08:30pm 27.4 27.1 16.4 51 6.8 NW 13 15 7 8 1013.8 1013.6 0.0
23/08:26pm 27.9 27.6 16.5 50 7.1 NW 13 20 7 11 1013.8 1013.6 0.0
23/08:25pm 27.9 27.7 16.8 50 6.9 NW 13 20 7 11 1013.8 1013.6 0.0
23/08:00pm 26.7 27.6 14.1 46 7.5 SE 2 17 1 9 1013.5 1013.3 0.0
23/07:59pm 27.0 28.0 14.4 46 7.6 SE 2 7 1 4 1013.5 1013.3 0.0
23/07:30pm 28.8 28.3 13.9 40 8.9 ENE 9 11 5 6 1013.2 1013.0 0.0
23/07:21pm 27.9 28.1 14.2 43 8.2 NNW 6 11 3 6 1013.0 1012.8 0.0
23/07:08pm 29.7 29.8 13.9 38 9.5 NW 6 9 3 5 1012.8 1012.6 0.0
23/07:00pm 30.5 30.1 12.9 34 10.5 NW 7 9 4 5 1012.7 1012.5 0.0
23/06:30pm 32.4 31.3 13.1 31 11.6 N 11 13 6 7 1012.4 1012.2 0.0
23/06:00pm 34.5 32.5 11.6 25 13.6 NW 13 15 7 8 1012.1 1011.9 0.0
23/05:30pm 35.3 33.6 9.7 21 14.8 N 9 13 5 7 1012.1 1011.9 0.0
23/05:00pm 35.6 34.1 9.2 20 15.1 NNE 7 13 4 7 1012.1 1011.9 0.0
23/04:30pm 35.6 33.0 9.2 20 15.2 NE 13 19 7 10 1012.2 1012.0 0.0
23/04:00pm 35.5 34.6 10.5 22 14.6 SSW 6 11 3 6 1012.4 1012.2 0.0
23/03:30pm 35.2 33.6 11.6 24 14.0 N 11 20 6 11 1012.7 1012.5 0.0
23/03:00pm 35.3 32.8 9.7 21 14.8 E 13 26 7 14 1013.0 1012.8 0.0
23/02:30pm 35.5 32.7 11.2 23 14.4 NNE 17 26 9 14 1013.4 1013.2 0.0
23/02:00pm 34.8 31.6 9.9 22 14.4 NNE 17 24 9 13 1013.9 1013.7 0.0
23/01:30pm 34.9 32.7 12.0 25 13.7 NNE 15 24 8 13 1014.4 1014.2 0.0
23/01:17pm 36.1 32.6 11.0 22 14.8 NE 20 28 11 15 1014.6 1014.4 0.0
23/01:06pm 35.3 31.8 11.0 23 14.3 NE 20 30 11 16 1014.8 1014.6 0.0
23/01:00pm 35.2 31.7 10.9 23 14.3 NNE 20 39 11 21 1015.0 1014.8 0.0
23/12:30pm 34.0 30.8 11.8 26 13.1 ENE 20 28 11 15 1015.4 1015.2 0.0
23/12:00pm 34.2 30.6 12.0 26 13.2 NNE 22 30 12 16 1015.7 1015.5 0.0
23/11:30am 32.8 29.0 11.3 27 12.6 NNE 22 32 12 17 1016.3 1016.1 0.0
23/11:00am 32.2 28.2 11.9 29 12.0 NE 24 35 13 19 1016.7 1016.6 0.0
23/10:30am 31.4 28.1 11.7 29 11.5 NNE 20 30 11 16 1016.7 1016.6 0.0
23/10:00am 30.0 29.3 13.3 36 10.0 ESE 9 13 5 7 1016.8 1016.7 0.0
23/09:30am 27.1 26.9 14.8 47 7.4 SSE 9 11 5 6 1016.7 1016.6 0.0
23/09:00am 25.6 27.0 16.5 57 5.6 SSE 4 7 2 4 1016.4 1016.2 0.0
23/08:30am 22.9 25.1 19.3 80 2.3 S 6 7 3 4 1016.1 1015.9 0.0
23/08:00am 21.3 23.8 19.8 91 1.0 S 6 6 3 3 1015.8 1015.6 0.0
23/07:38am 17.9 20.4 17.3 96 0.4 CALM 0 6 0 3 1015.6 1015.4 0.0
23/07:30am 17.2 19.4 16.4 95 0.5 CALM 0 0 0 0 1015.4 1015.2 0.0
23/07:18am 17.5 19.7 16.4 93 0.7 CALM 0 0 0 0 1015.3 1015.1 0.0
23/07:00am 18.6 21.5 18.1 97 0.3 CALM 0 0 0 0 1015.1 1014.9 0.0
23/06:30am 17.9 20.1 16.6 92 0.8 CALM 0 0 0 0 1014.7 1014.5 0.0
23/06:00am 17.6 18.4 15.8 89 1.1 S 6 7 3 4 1014.5 1014.3 0.0
23/05:30am 18.2 19.1 16.2 88 1.2 SE 6 7 3 4 1014.3 1014.1 0.0
23/05:00am 18.8 21.4 17.6 93 0.7 CALM 0 0 0 0 1014.2 1014.0 0.0
23/04:30am 18.6 20.8 16.6 88 1.2 CALM 0 0 0 0 1013.9 1013.7 0.0
23/04:00am 19.4 20.4 16.4 83 1.8 S 6 7 3 4 1013.8 1013.6 0.0
23/03:30am 19.5 21.6 16.3 82 1.9 CALM 0 0 0 0 1013.8 1013.6 0.0
23/03:00am 18.9 21.0 16.3 85 1.6 CALM 0 0 0 0 1013.9 1013.7 0.0
23/02:30am 19.0 21.3 16.8 87 1.3 CALM 0 0 0 0 1013.9 1013.7 0.0
23/02:00am 19.6 21.9 16.8 84 1.7 CALM 0 0 0 0 1014.1 1013.9 0.0
23/01:30am 20.1 22.5 17.1 83 1.8 CALM 0 0 0 0 1014.5 1014.3 0.0
23/01:11am 20.0 22.2 16.4 80 2.2 CALM 0 4 0 2 1014.6 1014.4 0.0
23/01:00am 20.6 22.7 17.2 81 2.1 E 2 6 1 3 1014.6 1014.4 0.0
23/12:30am 21.5 23.3 18.3 82 2.0 SE 6 7 3 4 1014.6 1014.4 0.0
23/12:19am 21.6 23.1 18.0 80 2.2 SE 7 7 4 4 1014.6 1014.4 0.0
23/12:00am 21.4 22.8 17.4 78 2.5 SE 6 6 3 3 1014.6 1014.4 0.0
 
Date/Time
CST
Temp
°C
App
Temp
°C
Dew
Point
°C
Rel
Hum
%
Delta-T
°C
Wind Press
QNH
hPa
Press
MSL
hPa
Rain since
9am
mm
Dir  Spd
km/h
Gust
km/h
Spd
kts
Gust
kts
22/11:44pm 21.6 23.4 17.4 77 2.6 NNE 4 7 2 4 1014.6 1014.4 0.0
22/11:30pm 21.9 24.6 17.7 77 2.6 CALM 0 0 0 0 1014.7 1014.5 0.0
22/11:00pm 22.1 24.1 16.1 69 3.6 CALM 0 0 0 0 1014.6 1014.4 0.0
22/10:30pm 23.1 25.5 16.9 68 3.8 CALM 0 0 0 0 1014.6 1014.4 0.0
22/10:00pm 23.6 25.7 17.1 67 4.0 N 2 6 1 3 1014.4 1014.2 0.0
22/09:30pm 24.3 25.4 16.6 62 4.7 N 6 7 3 4 1014.3 1014.1 0.0
22/09:00pm 24.6 25.4 15.8 58 5.3 N 6 7 3 4 1014.1 1013.9 0.0
22/08:30pm 25.6 25.2 15.3 53 6.2 N 11 13 6 7 1013.9 1013.7 0.0
22/08:00pm 26.5 25.7 15.2 49 6.9 N 13 15 7 8 1013.5 1013.3 0.0
22/07:30pm 27.1 26.3 15.1 47 7.3 N 13 15 7 8 1012.9 1012.7 0.0
22/07:00pm 29.7 28.7 13.5 37 9.7 N 11 11 6 6 1012.4 1012.2 0.0
22/06:30pm 32.3 31.0 12.5 30 11.8 NNW 11 13 6 7 1012.1 1011.9 0.0
22/06:00pm 33.8 32.0 12.2 27 12.9 NNW 13 17 7 9 1011.8 1011.6 0.0
22/05:30pm 34.8 33.3 10.6 23 14.1 NNE 9 15 5 8 1011.7 1011.5 0.0
22/05:00pm 35.1 33.7 10.9 23 14.2 NNE 9 15 5 8 1011.8 1011.6 0.0
22/04:30pm 35.3 32.4 11.0 23 14.3 E 17 24 9 13 1011.9 1011.7 0.0
22/04:00pm 34.9 33.1 12.0 25 13.7 E 13 20 7 11 1012.0 1011.8 0.0
22/03:30pm 34.9 32.1 11.3 24 13.9 NNE 17 24 9 13 1012.3 1012.1 0.0
22/03:00pm 35.5 33.0 11.2 23 14.4 ENE 15 28 8 15 1012.5 1012.3 0.0
22/02:30pm 34.9 33.4 13.1 27 13.2 N 13 24 7 13 1012.8 1012.6 0.0
22/02:00pm 34.9 32.8 12.5 25 13.5 N 15 26 8 14 1013.2 1013.0 0.0
22/01:30pm 33.1 32.1 16.5 37 10.5 N 17 26 9 14 1013.8 1013.6 0.0
22/01:00pm 32.3 31.0 15.7 36 10.4 NNW 17 28 9 15 1014.3 1014.1 0.0
22/12:30pm 31.9 30.4 15.4 37 10.2 N 17 26 9 14 1014.7 1014.5 0.0
22/12:00pm 31.3 31.0 16.5 41 9.3 NNE 13 20 7 11 1015.0 1014.8 0.0
22/11:30am 30.2 30.9 18.0 48 7.8 N 11 17 6 9 1015.5 1015.3 0.0
22/11:00am 29.1 29.3 17.6 50 7.3 N 13 20 7 11 1015.6 1015.4 0.0
22/10:30am 28.4 28.8 17.3 51 7.0 NNE 11 15 6 8 1015.7 1015.5 0.0
22/10:00am 26.8 28.4 19.2 63 4.9 N 9 13 5 7 1015.4 1015.2 0.0
22/09:30am 25.9 27.3 18.6 64 4.7 N 9 11 5 6 1015.4 1015.2 0.0
22/09:00am 24.1 27.0 18.3 70 3.7 CALM 0 6 0 3 1015.1 1014.9 0.0
22/08:30am 20.9 23.2 17.7 82 2.0 SSE 2 6 1 3 1014.7 1014.5 0.0
22/08:00am 19.3 21.8 17.3 88 1.2 CALM 0 0 0 0 1014.3 1014.1 0.0
22/07:30am 16.1 17.7 15.0 93 0.6 CALM 0 0 0 0 1013.9 1013.7 0.0
22/07:00am 15.9 17.2 14.1 89 1.0 CALM 0 0 0 0 1013.5 1013.3 0.0
22/06:30am 16.5 18.1 14.9 90 0.9 CALM 0 0 0 0 1013.1 1012.9 0.0
22/06:00am 16.3 17.6 14.1 87 1.3 CALM 0 0 0 0 1012.7 1012.5 0.0
22/05:30am 16.2 17.2 14.2 88 1.1 NNE 2 6 1 3 1012.6 1012.4 0.0
22/05:00am 16.9 17.5 15.4 91 0.9 ENE 6 7 3 4 1012.4 1012.2 0.0
22/04:30am 17.1 18.6 14.7 86 1.4 CALM 0 0 0 0 1012.1 1011.9 0.0
22/04:00am 17.0 18.5 14.6 86 1.4 CALM 0 7 0 4 1012.2 1012.0 0.0
22/03:30am 17.9 19.6 15.2 84 1.6 CALM 0 0 0 0 1012.2 1012.0 0.0
22/03:00am 18.1 19.8 15.2 83 1.7 CALM 0 6 0 3 1012.4 1012.2 0.0
22/02:30am 18.4 19.9 14.7 79 2.1 CALM 0 0 0 0 1012.6 1012.4 0.0
22/02:00am 18.6 20.3 15.1 80 2.0 CALM 0 6 0 3 1012.7 1012.5 0.0
22/01:30am 19.1 20.7 15.0 77 2.4 CALM 0 0 0 0 1012.6 1012.4 0.0
22/01:00am 19.7 21.0 16.2 80 2.1 E 4 9 2 5 1012.9 1012.7 0.0
22/12:30am 20.9 22.9 15.9 73 3.0 CALM 0 4 0 2 1013.1 1012.9 0.0
22/12:08am 21.4 22.8 17.4 78 2.5 SE 6 9 3 5 1013.3 1013.1 0.0
22/12:00am 21.1 22.8 16.1 73 3.0 W 2 9 1 5 1013.3 1013.1 0.0
 
Date/Time
CST
Temp
°C
App
Temp
°C
Dew
Point
°C
Rel
Hum
%
Delta-T
°C
Wind Press
QNH
hPa
Press
MSL
hPa
Rain since
9am
mm
Dir  Spd
km/h
Gust
km/h
Spd
kts
Gust
kts
21/11:41pm 22.2 24.2 16.0 68 3.7 CALM 0 0 0 0 1013.2 1013.0 0.0
21/11:30pm 22.1 23.4 16.1 69 3.6 WNW 4 7 2 4 1013.3 1013.1 0.0
21/11:00pm 22.9 23.6 15.7 64 4.3 WNW 6 9 3 5 1013.3 1013.1 0.0
21/10:30pm 24.1 23.7 16.1 61 4.9 NNE 13 15 7 8 1013.3 1013.1 0.0
21/10:21pm 24.2 23.8 16.2 61 4.9 NNE 13 15 7 8 1013.3 1013.1 0.0
21/10:11pm 23.0 22.6 15.3 62 4.6 NNE 11 15 6 8 1013.2 1013.0 0.0
21/10:00pm 22.9 22.6 15.5 63 4.4 NE 11 13 6 7 1013.2 1013.0 0.0
21/09:30pm 24.3 25.3 16.3 61 4.9 NE 6 7 3 4 1013.0 1012.8 0.0
21/09:00pm 25.5 25.4 16.1 56 5.8 N 11 13 6 7 1012.6 1012.4 0.0
21/08:30pm 25.5 25.0 15.8 55 5.9 N 13 13 7 7 1012.2 1012.0 0.0
21/08:00pm 26.9 25.8 15.3 49 7.1 N 15 15 8 8 1011.8 1011.6 0.0
21/07:30pm 28.5 26.0 11.1 34 10.0 NNE 15 20 8 11 1011.2 1011.0 0.0
21/07:22pm 28.2 26.7 10.4 33 10.1 ENE 9 9 5 5 1011.1 1010.9 0.0
21/07:03pm 31.4 29.0 7.1 22 13.2 E 9 11 5 6 1010.9 1010.7 0.0
21/07:00pm 31.4 28.6 7.1 22 13.2 E 11 11 6 6 1010.9 1010.7 0.0
21/06:30pm 33.3 30.0 6.6 19 14.6 E 13 15 7 8 1010.6 1010.4 0.0
21/06:00pm 35.4 30.6 4.8 15 16.4 E 19 24 10 13 1010.2 1010.0 0.0
21/05:30pm 36.4 31.2 3.6 13 17.3 E 20 28 11 15 1009.9 1009.7 0.0
21/05:00pm 36.2 34.0 6.4 16 16.4 S 7 11 4 6 1009.8 1009.6 0.0
21/04:30pm 36.1 33.7 7.2 17 16.1 NNE 9 15 5 8 1009.9 1009.7 0.0
21/04:00pm 36.2 33.5 7.3 17 16.1 ESE 11 24 6 13 1010.1 1009.9 0.0
21/03:49pm 36.3 34.6 7.4 17 16.2 W 6 13 3 7 1010.2 1010.0 0.0
21/03:38pm 35.6 33.5 6.8 17 15.9 N 7 15 4 8 1010.3 1010.1 0.0
21/03:30pm 35.9 32.9 7.9 18 15.8 E 13 24 7 13 1010.4 1010.2 0.0
21/03:00pm 36.0 33.8 8.0 18 15.8 NNE 9 15 5 8 1010.8 1010.6 0.0
21/02:30pm 35.3 31.8 7.4 18 15.6 ESE 15 20 8 11 1011.2 1011.0 0.0
21/02:00pm 35.0 31.1 7.1 18 15.5 E 17 33 9 18 1011.6 1011.4 0.0
21/01:30pm 34.9 32.1 11.3 24 13.9 N 17 22 9 12 1012.0 1011.8 0.0
21/01:00pm 34.2 31.3 8.0 20 14.7 NE 13 19 7 10 1012.6 1012.4 0.0
21/12:30pm 34.7 30.9 7.7 19 15.1 NNE 17 26 9 14 1013.0 1012.8 0.0
21/12:00pm 33.7 30.5 8.3 21 14.2 NE 15 24 8 13 1013.5 1013.3 0.0
21/11:30am 32.3 31.1 10.4 26 12.6 ENE 7 11 4 6 1013.9 1013.7 0.0
21/11:00am 31.4 30.3 10.7 28 11.9 NNE 7 15 4 8 1014.3 1014.1 0.0
21/10:30am 30.5 29.6 10.5 29 11.4 ENE 6 9 3 5 1014.5 1014.3 0.0
21/10:00am 28.9 28.1 11.0 33 10.2 NE 6 9 3 5 1014.5 1014.3 0.0
21/09:30am 26.3 26.7 12.4 42 8.0 NNW 2 7 1 4 1014.3 1014.1 0.0
21/09:00am 23.9 24.9 14.3 55 5.7 S 2 6 1 3 1014.1 1013.9 0.0
21/08:30am 21.6 21.5 13.8 61 4.5 SW 7 9 4 5 1014.0 1013.8 0.0
21/08:29am 21.6 21.5 14.0 62 4.4 SW 7 9 4 5 1013.9 1013.7 0.0
21/08:17am 20.5 21.6 16.5 78 2.4 SSE 6 7 3 4 1013.8 1013.6 0.0
21/08:07am 20.0 22.3 17.6 86 1.5 SE 2 6 1 3 1013.7 1013.5 0.0
21/08:00am 19.3 20.7 16.5 84 1.7 ESE 4 7 2 4 1013.6 1013.4 0.0
21/07:57am 18.8 19.7 16.2 85 1.6 ESE 6 9 3 5 1013.6 1013.4 0.0
21/07:55am 18.4 19.2 15.8 85 1.5 ESE 6 9 3 5 1013.5 1013.3 0.0
21/07:32am 16.4 17.7 14.2 87 1.3 CALM 0 0 0 0 1013.2 1013.0 0.0
21/07:30am 16.2 17.5 14.2 88 1.1 CALM 0 0 0 0 1013.2 1013.0 0.0
21/07:22am 15.7 17.0 14.1 90 0.9 CALM 0 0 0 0 1013.1 1012.9 0.0
21/07:00am 16.3 17.6 14.0 86 1.3 CALM 0 0 0 0 1012.7 1012.5 0.0
21/06:30am 15.8 16.8 13.3 85 1.4 CALM 0 0 0 0 1012.4 1012.2 0.0
21/06:00am 16.3 17.2 14.0 86 1.3 NNW 2 7 1 4 1012.1 1011.9 0.0
21/05:56am 16.4 17.6 13.9 85 1.4 CALM 0 0 0 0 1012.0 1011.8 0.0
21/05:49am 17.1 18.3 13.8 81 1.9 CALM 0 0 0 0 1012.1 1011.9 0.0
21/05:30am 17.1 17.8 14.6 85 1.4 NW 4 7 2 4 1012.0 1011.8 0.0
21/05:25am 17.2 17.4 14.1 82 1.8 NW 6 7 3 4 1011.9 1011.7 0.0
21/05:00am 18.5 18.8 15.0 80 2.0 ENE 7 7 4 4 1011.7 1011.5 0.0
21/04:30am 18.6 19.6 16.8 89 1.1 ESE 7 9 4 5 1011.7 1011.5 0.0
21/04:12am 19.3 20.1 16.3 83 1.8 SSE 7 7 4 4 1011.6 1011.4 0.0
21/04:00am 18.5 19.4 16.1 86 1.4 S 6 7 3 4 1011.5 1011.3 0.0
21/03:30am 18.0 19.4 14.3 79 2.1 CALM 0 0 0 0 1011.6 1011.4 0.0
21/03:00am 18.7 18.8 14.4 76 2.5 E 7 9 4 5 1011.8 1011.6 0.0

Other Formats:

Comma delimited format used in spreadsheet applications
http://www.bom.gov.au/fwo/IDD60801/IDD60801.94216.axf

JavaScript Object Notation format (JSON) in row-major order
http://www.bom.gov.au/fwo/IDD60801/IDD60801.94216.json